Time;durP1;ratioP1;P1;durP2;ratioP2;P2;SDS_P1;SDS_P2;PMS_P1;PMS_P2;Temp;Humidity;BMP_temperature;BMP_pressure;BME280_temperature;BME280_humidity;BME280_pressure;Samples;Min_cycle;Max_cycle;Signal;HPM_P1;HPM_P2
2022/11/03 00:00:13;;;;;;;;;;;;;;;8.01;82.65;97323.38;30001;983;1864;-68
2022/11/03 00:00:47;;;;;;;;;;;;;;;8.01;82.67;97323.38;30001;983;1873;-67
2022/11/03 00:01:18;;;;;;;;;;;;;;;7.98;82.72;97318.50;30001;971;1798;-56
2022/11/03 00:01:52;;;;;;;;;;;;;;;7.97;82.97;97314.16;30001;983;1882;-63
2022/11/03 00:02:23;;;;;;;;;;;;;;;7.97;83.18;97310.69;30001;983;1877;-70
2022/11/03 00:02:54;;;;;;;;;;;;;;;7.96;82.88;97314.47;30001;983;1882;-66
2022/11/03 00:03:25;;;;;;;;;;;;;;;7.98;82.95;97313.09;30001;983;1877;-69
2022/11/03 00:03:56;;;;;;;;;;;;;;;7.95;82.72;97313.66;30001;983;1882;-65
2022/11/03 00:04:27;;;;;;;;;;;;;;;7.96;82.98;97309.87;30001;983;1878;-57
2022/11/03 00:06:03;;;;;;;;;;;;;;;7.95;82.96;97319.06;30001;982;1882;-67
2022/11/03 00:06:04;;;;;;;;;;;;;;;7.92;82.85;97319.59;30001;982;1865;-67
2022/11/03 00:06:35;;;;;;;;;;;;;;;7.91;83.04;97317.16;30001;982;1873;-71
2022/11/03 00:07:10;;;;;;;;;;;;;;;7.89;83.35;97314.72;30001;982;1878;-67
2022/11/03 00:07:41;;;;;;;;;;;;;;;7.87;83.40;97322.25;30001;983;1881;-69
2022/11/03 00:08:11;;;;;;;;;;;;;;;7.87;83.25;97313.34;30001;983;1877;-57
2022/11/03 00:08:42;;;;;;;;;;;;;;;7.84;83.34;97325.50;30001;983;1868;-67
2022/11/03 00:09:14;;;;;;;;;;;;;;;7.83;83.16;97315.75;30001;983;1869;-69
2022/11/03 00:09:45;;;;;;;;;;;;;;;7.81;83.35;97315.22;30001;983;1882;-70
2022/11/03 00:10:16;;;;;;;;;;;;;;;7.80;83.43;97315.47;30001;986;1869;-68
2022/11/03 00:10:47;;;;;;;;;;;;;;;7.80;83.19;97327.09;30001;983;1882;-69
2022/11/03 00:11:18;;;;;;;;;;;;;;;7.80;83.67;97313.59;30001;983;1878;-66
2022/11/03 00:11:50;;;;;;;;;;;;;;;7.84;83.48;97314.69;30001;982;1869;-70
2022/11/03 00:12:21;;;;;;;;;;;;;;;7.82;83.39;97319.53;30001;982;1869;-68
2022/11/03 00:12:52;;;;;;;;;;;;;;;7.81;83.56;97312.50;30001;982;1882;-68
2022/11/03 00:13:26;;;;;;;;;;;;;;;7.79;83.39;97316.56;30001;982;1865;-66
2022/11/03 00:13:58;;;;;;;;;;;;;;;7.78;83.49;97323.03;30001;982;1873;-67
2022/11/03 00:14:29;;;;;;;;;;;;;;;7.78;83.46;97315.75;30001;982;1878;-67
2022/11/03 00:15:00;;;;;;;;;;;;;;;7.76;83.42;97309.78;30001;982;1882;-69
2022/11/03 00:15:32;;;;;;;;;;;;;;;7.76;83.83;97314.38;30001;983;1877;-67
2022/11/03 00:16:03;;;;;;;;;;;;;;;7.76;83.73;97312.50;30001;983;1868;-57
2022/11/03 00:16:35;;;;;;;;;;;;;;;7.77;83.56;97306.00;30001;983;1868;-67
2022/11/03 00:17:06;;;;;;;;;;;;;;;7.77;83.54;97310.59;30001;983;1882;-67
2022/11/03 00:17:36;;;;;;;;;;;;;;;7.77;83.52;97303.31;30001;983;1877;-67
2022/11/03 00:18:09;;;;;;;;;;;;;;;7.80;83.21;97300.09;30001;983;1882;-67
2022/11/03 00:18:44;;;;;;;;;;;;;;;7.81;83.51;97304.41;30001;983;1878;-68
2022/11/03 00:19:16;;;;;;;;;;;;;;;7.82;83.14;97302.53;30001;982;1882;-65
2022/11/03 00:19:48;;;;;;;;;;;;;;;7.82;83.34;97300.63;30001;982;1864;-69
2022/11/03 00:20:20;;;;;;;;;;;;;;;7.82;82.93;97306.03;30001;982;1873;-64
2022/11/03 00:20:58;;;;;;;;;;;;;;;7.82;83.23;97303.34;30001;986;1878;-67
2022/11/03 00:21:29;;;;;;;;;;;;;;;7.80;82.67;97305.47;30001;982;1882;-70
2022/11/03 00:22:00;;;;;;;;;;;;;;;7.79;83.01;97298.47;30001;982;1878;-57
2022/11/03 00:22:33;;;;;;;;;;;;;;;7.78;83.03;97296.84;30001;982;1882;-65
2022/11/03 00:23:04;;;;;;;;;;;;;;;7.79;83.26;97303.87;30001;983;1877;-65
2022/11/03 00:23:36;;;;;;;;;;;;;;;7.78;83.11;97296.84;30001;983;1882;-65
2022/11/03 00:24:08;;;;;;;;;;;;;;;7.80;83.04;97305.47;30001;983;1877;-57
2022/11/03 00:24:39;;;;;;;;;;;;;;;7.80;83.12;97297.38;30001;983;1869;-56
2022/11/03 00:25:09;;;;;;;;;;;;;;;7.77;82.96;97300.59;30001;983;1869;-64
2022/11/03 00:25:40;;;;;;;;;;;;;;;7.76;83.17;97304.38;30001;983;1882;-65
2022/11/03 00:26:21;;;;;;;;;;;;;;;7.74;83.19;97295.72;30001;983;1878;-67
2022/11/03 00:26:52;;;;;;;;;;;;;;;7.74;83.32;97301.13;30001;982;1882;-71
2022/11/03 00:27:23;;;;;;;;;;;;;;;7.72;83.45;97297.88;30001;982;1864;-64
2022/11/03 00:27:57;;;;;;;;;;;;;;;7.71;83.61;97302.47;30001;982;1873;-66
2022/11/03 00:28:29;;;;;;;;;;;;;;;7.71;83.69;97296.25;30001;982;1878;-67
2022/11/03 00:29:05;;;;;;;;;;;;;;;7.71;83.48;97296.25;30001;982;1882;-57
2022/11/03 00:29:35;;;;;;;;;;;;;;;7.71;83.76;97304.38;30001;983;1877;-57
2022/11/03 00:30:07;;;;;;;;;;;;;;;7.66;83.71;97299.75;30001;983;1881;-56
2022/11/03 00:30:39;;;;;;;;;;;;;;;7.66;83.66;97301.63;30001;983;1877;-58
2022/11/03 00:31:14;;;;;;;;;;;;;;;7.68;83.87;97302.19;30001;983;1882;-68
2022/11/03 00:31:46;;;;;;;;;;;;;;;7.67;83.70;97295.16;30001;983;1877;-67
2022/11/03 00:32:20;;;;;;;;;;;;;;;7.67;83.78;97300.56;30001;983;1869;-70
2022/11/03 00:32:51;;;;;;;;;;;;;;;7.69;83.85;97298.41;30001;983;1869;-65
2022/11/03 00:33:25;;;;;;;;;;;;;;;7.69;83.72;97298.41;30001;983;1882;-69
2022/11/03 00:33:57;;;;;;;;;;;;;;;7.68;84.04;97296.78;30001;983;1878;-71
2022/11/03 00:34:28;;;;;;;;;;;;;;;7.66;83.91;97307.03;30001;982;1882;-69
2022/11/03 00:34:59;;;;;;;;;;;;;;;7.64;83.97;97301.91;30001;982;1878;-72
2022/11/03 00:35:30;;;;;;;;;;;;;;;7.63;84.04;97296.75;30001;982;1869;-70
2022/11/03 00:36:02;;;;;;;;;;;;;;;7.60;84.24;97290.03;30001;982;1869;-68
2022/11/03 00:36:37;;;;;;;;;;;;;;;7.62;84.36;97297.88;30001;982;1882;-56
2022/11/03 00:37:08;;;;;;;;;;;;;;;7.68;84.33;97291.38;30001;983;1877;-65
2022/11/03 00:37:39;;;;;;;;;;;;;;;7.71;83.84;97280.06;30001;983;1881;-68
2022/11/03 00:38:09;;;;;;;;;;;;;;;7.69;84.23;97285.72;30001;983;1877;-68
2022/11/03 00:38:41;;;;;;;;;;;;;;;7.69;83.86;97282.19;30001;983;1882;-59
2022/11/03 00:39:12;;;;;;;;;;;;;;;7.67;84.09;97284.34;30001;983;1877;-67
2022/11/03 00:39:43;;;;;;;;;;;;;;;7.70;84.16;97289.22;30001;983;1869;-68
2022/11/03 00:40:16;;;;;;;;;;;;;;;7.68;84.12;97284.09;30001;983;1869;-67
2022/11/03 00:40:52;;;;;;;;;;;;;;;7.66;83.97;97282.72;30001;983;1882;-67
2022/11/03 00:41:23;;;;;;;;;;;;;;;7.63;84.20;97278.66;30001;983;1877;-70
2022/11/03 00:41:54;;;;;;;;;;;;;;;7.60;84.22;97283.81;30001;982;1882;-67
2022/11/03 00:42:25;;;;;;;;;;;;;;;7.59;84.72;97282.19;30001;982;1878;-69
2022/11/03 00:42:58;;;;;;;;;;;;;;;7.58;84.52;97275.16;30001;982;1882;-70
2022/11/03 00:43:30;;;;;;;;;;;;;;;7.60;84.75;97283.81;30001;982;1878;-66
2022/11/03 00:45:09;;;;;;;;;;;;;;;7.63;84.58;97278.66;89987;930;17000;-57
2022/11/03 00:45:40;;;;;;;;;;;;;;;7.65;84.55;97273.00;30001;983;1868;-57
2022/11/03 00:46:12;;;;;;;;;;;;;;;7.62;84.03;97277.03;30001;982;1868;-66
2022/11/03 00:46:42;;;;;;;;;;;;;;;7.62;84.87;97277.03;30001;982;1880;-67
2022/11/03 00:47:13;;;;;;;;;;;;;;;7.61;84.70;97270.03;30001;982;1876;-66
2022/11/03 00:48:35;;;;;;;;;;;;;;;7.57;84.87;97268.12;30001;983;1875;-64
2022/11/03 00:49:05;;;;;;;;;;;;;;;7.55;84.95;97271.09;30001;983;1880;-68
2022/11/03 00:49:36;;;;;;;;;;;;;;;7.54;85.10;97268.66;30001;983;1876;-64
2022/11/03 00:50:08;;;;;;;;;;;;;;;7.56;85.37;97266.50;30001;983;1880;-67
2022/11/03 00:50:38;;;;;;;;;;;;;;;7.58;85.19;97267.06;30001;983;1876;-69
2022/11/03 00:51:20;;;;;;;;;;;;;;;7.57;85.45;97262.72;30001;983;1867;-67
2022/11/03 00:51:52;;;;;;;;;;;;;;;7.60;85.23;97264.91;30001;983;1867;-64
2022/11/03 00:52:23;;;;;;;;;;;;;;;7.59;84.89;97268.69;30001;983;1867;-65
2022/11/03 00:52:54;;;;;;;;;;;;;;;7.61;85.21;97263.84;30001;983;1867;-58
2022/11/03 00:53:24;;;;;;;;;;;;;;;7.63;85.35;97267.06;30001;982;1880;-57
2022/11/03 00:53:57;;;;;;;;;;;;;;;7.61;85.03;97266.53;30001;982;1876;-68
2022/11/03 00:54:28;;;;;;;;;;;;;;;7.61;85.11;97263.84;30001;982;1880;-68
2022/11/03 00:55:00;;;;;;;;;;;;;;;7.61;85.15;97271.94;30001;982;1876;-69
2022/11/03 00:55:33;;;;;;;;;;;;;;;7.60;85.13;97267.59;30001;982;1881;-67
2022/11/03 00:56:05;;;;;;;;;;;;;;;7.58;85.02;97264.34;30001;983;1875;-68
2022/11/03 00:56:37;;;;;;;;;;;;;;;7.57;85.39;97262.72;30001;983;1880;-70
2022/11/03 00:57:08;;;;;;;;;;;;;;;7.56;84.93;97255.72;30001;983;1875;-68
2022/11/03 00:57:38;;;;;;;;;;;;;;;7.57;85.15;97258.16;30001;983;1867;-57
2022/11/03 00:58:09;;;;;;;;;;;;;;;7.59;84.75;97249.78;30001;983;1867;-66
2022/11/03 00:58:41;;;;;;;;;;;;;;;7.57;85.12;97249.22;30001;983;1880;-67
2022/11/03 00:59:12;;;;;;;;;;;;;;;7.56;85.13;97250.31;30001;983;1876;-67
2022/11/03 00:59:43;;;;;;;;;;;;;;;7.55;85.11;97254.09;30001;983;1880;-68
2022/11/03 01:00:15;;;;;;;;;;;;;;;7.56;85.09;97253.00;30001;986;1876;-57
2022/11/03 01:00:47;;;;;;;;;;;;;;;7.54;85.21;97255.16;30001;983;1880;-57
2022/11/03 01:01:19;;;;;;;;;;;;;;;7.54;85.40;97252.47;30001;982;1876;-65
2022/11/03 01:01:50;;;;;;;;;;;;;;;7.53;85.24;97256.22;30001;982;1881;-67
2022/11/03 01:02:21;;;;;;;;;;;;;;;7.51;85.26;97252.97;30001;982;1876;-68
2022/11/03 01:02:52;;;;;;;;;;;;;;;7.51;85.18;97253.78;30001;982;1868;-66
2022/11/03 01:03:22;;;;;;;;;;;;;;;7.51;85.37;97252.97;30001;983;1867;-65
2022/11/03 01:07:10;;;;;;;;;;;;;;;7.39;86.18;97259.41;30001;983;1880;-65
2022/11/03 01:07:41;;;;;;;;;;;;;;;7.41;86.26;97261.84;30001;983;1863;-67
2022/11/03 01:08:12;;;;;;;;;;;;;;;7.39;86.39;97251.31;30001;983;1872;-70
2022/11/03 01:08:43;;;;;;;;;;;;;;;7.39;85.78;97251.31;30001;982;1876;-69
2022/11/03 01:09:15;;;;;;;;;;;;;;;7.38;86.38;97249.69;30001;982;1880;-70
2022/11/03 01:09:46;;;;;;;;;;;;;;;7.37;85.92;97252.66;30001;982;1876;-57
2022/11/03 01:10:16;;;;;;;;;;;;;;;7.38;86.10;97252.38;30001;982;1880;-68
2022/11/03 01:11:42;;;;;;;;;;;;;;;7.44;86.24;97241.63;30001;967;1904;-69
2022/11/03 01:12:14;;;;;;;;;;;;;;;7.44;86.40;97247.00;30001;983;1876;-68
2022/11/03 01:12:46;;;;;;;;;;;;;;;7.42;86.15;97243.75;30001;983;1867;-68
2022/11/03 01:13:17;;;;;;;;;;;;;;;7.44;86.14;97244.31;30001;983;1867;-57
2022/11/03 01:13:48;;;;;;;;;;;;;;;7.41;86.20;97242.94;30001;983;1782;-57
2022/11/03 01:14:19;;;;;;;;;;;;;;;7.43;86.29;97242.69;30001;983;1876;-56
2022/11/03 01:14:51;;;;;;;;;;;;;;;7.42;86.20;97249.16;30001;983;1880;-71
2022/11/03 01:15:22;;;;;;;;;;;;;;;7.38;86.49;97236.19;30001;982;1876;-70
2022/11/03 01:15:57;;;;;;;;;;;;;;;7.39;86.49;97240.50;30001;982;1880;-66
2022/11/03 01:16:29;;;;;;;;;;;;;;;7.41;86.41;97240.25;30001;982;1876;-68
2022/11/03 01:17:03;;;;;;;;;;;;;;;7.42;86.65;97241.06;30001;982;1881;-64
2022/11/03 01:17:34;;;;;;;;;;;;;;;7.43;86.44;97242.69;30001;982;1876;-68
2022/11/03 01:18:05;;;;;;;;;;;;;;;7.44;86.49;97238.91;30001;982;1868;-68
2022/11/03 01:18:36;;;;;;;;;;;;;;;7.43;86.22;97237.28;30001;983;1867;-66
2022/11/03 01:19:07;;;;;;;;;;;;;;;7.42;86.57;97241.87;30001;983;1880;-67
2022/11/03 01:19:38;;;;;;;;;;;;;;;7.42;86.89;97241.06;30001;983;1875;-68
2022/11/03 01:20:09;;;;;;;;;;;;;;;7.42;86.86;97233.78;30001;983;1880;-68
2022/11/03 01:20:40;;;;;;;;;;;;;;;7.44;86.20;97237.03;30001;983;1876;-66
2022/11/03 01:21:12;;;;;;;;;;;;;;;7.49;86.41;97233.53;30001;983;1880;-64
2022/11/03 01:21:42;;;;;;;;;;;;;;;7.48;86.04;97231.91;30001;983;1876;-70
2022/11/03 01:22:14;;;;;;;;;;;;;;;7.45;86.50;97233.25;30001;983;1880;-67
2022/11/03 01:22:46;;;;;;;;;;;;;;;7.44;86.36;97226.22;30001;982;1876;-70
2022/11/03 01:23:17;;;;;;;;;;;;;;;7.42;86.18;97231.06;30001;982;1867;-66
2022/11/03 01:23:48;;;;;;;;;;;;;;;7.44;86.20;97230.81;30001;982;1867;-64
2022/11/03 01:24:19;;;;;;;;;;;;;;;7.44;86.55;97236.22;30001;982;1881;-70
2022/11/03 01:24:53;;;;;;;;;;;;;;;7.44;86.30;97233.50;30001;982;1876;-69
2022/11/03 01:25:24;;;;;;;;;;;;;;;7.42;86.70;97232.97;30001;982;1881;-68
2022/11/03 01:25:55;;;;;;;;;;;;;;;7.42;86.40;97228.38;30001;986;1867;-70
2022/11/03 01:26:26;;;;;;;;;;;;;;;7.42;86.66;97232.97;30001;983;1880;-66
2022/11/03 01:27:00;;;;;;;;;;;;;;;7.40;86.23;97235.94;30001;983;1876;-67
2022/11/03 01:27:33;;;;;;;;;;;;;;;7.39;86.44;97231.59;30001;983;1880;-67
2022/11/03 01:28:04;;;;;;;;;;;;;;;7.40;86.49;97233.22;30001;983;1876;-68
2022/11/03 01:28:39;;;;;;;;;;;;;;;7.38;86.74;97232.69;30001;983;1867;-66
2022/11/03 01:29:11;;;;;;;;;;;;;;;7.38;86.65;97228.09;30001;983;1867;-67
2022/11/03 01:29:42;;;;;;;;;;;;;;;7.37;86.96;97231.88;30001;983;1880;-57
2022/11/03 01:30:17;;;;;;;;;;;;;;;7.36;86.55;97235.63;30001;982;1876;-56
2022/11/03 01:30:48;;;;;;;;;;;;;;;7.35;86.97;97227.81;30001;982;1880;-71
2022/11/03 01:31:21;;;;;;;;;;;;;;;7.34;86.38;97226.19;30001;982;1876;-68
2022/11/03 01:31:52;;;;;;;;;;;;;;;7.32;86.92;97229.13;30001;982;1881;-70
2022/11/03 01:32:23;;;;;;;;;;;;;;;7.30;86.67;97223.19;30001;982;1876;-67
2022/11/03 01:32:54;;;;;;;;;;;;;;;7.29;86.86;97229.66;30001;982;1881;-66
2022/11/03 01:33:25;;;;;;;;;;;;;;;7.31;86.79;97230.22;30001;982;1876;-57
2022/11/03 01:33:59;;;;;;;;;;;;;;;7.31;86.66;97226.69;30001;983;1867;-57
2022/11/03 01:34:31;;;;;;;;;;;;;;;7.30;86.76;97231.28;30001;983;1867;-58
2022/11/03 01:35:02;;;;;;;;;;;;;;;7.29;86.84;97223.44;30001;983;1880;-67
2022/11/03 01:35:36;;;;;;;;;;;;;;;7.27;86.84;97226.44;30001;983;1876;-69
2022/11/03 01:36:11;;;;;;;;;;;;;;;7.28;87.22;97219.94;30001;983;1880;-57
2022/11/03 01:36:43;;;;;;;;;;;;;;;7.32;86.84;97229.13;30001;983;1876;-58
2022/11/03 01:37:13;;;;;;;;;;;;;;;7.31;87.12;97227.50;30001;983;1880;-68
2022/11/03 01:37:44;;;;;;;;;;;;;;;7.29;86.72;97221.56;30001;982;1876;-55
2022/11/03 01:38:15;;;;;;;;;;;;;;;7.27;87.24;97221.03;30001;982;1880;-68
2022/11/03 01:38:47;;;;;;;;;;;;;;;7.23;87.03;97219.13;30001;982;1876;-68
2022/11/03 01:39:18;;;;;;;;;;;;;;;7.24;87.26;97220.75;30001;982;1867;-57
2022/11/03 01:39:53;;;;;;;;;;;;;;;7.24;87.27;97218.87;30001;982;1867;-71
2022/11/03 01:40:24;;;;;;;;;;;;;;;7.26;87.62;97218.59;30001;982;1881;-69
2022/11/03 01:40:55;;;;;;;;;;;;;;;7.26;87.25;97210.50;30001;982;1877;-57
2022/11/03 01:41:27;;;;;;;;;;;;;;;7.25;87.66;97212.41;30001;983;1880;-56
2022/11/03 01:41:58;;;;;;;;;;;;;;;7.26;87.16;97205.13;30001;983;1875;-70
2022/11/03 01:42:29;;;;;;;;;;;;;;;7.26;87.37;97211.31;30001;983;1880;-69
2022/11/03 01:43:15;;;;;;;;;;;;;;;7.28;87.33;97211.84;30001;983;1876;-57
2022/11/03 01:43:49;;;;;;;;;;;;;;;7.27;87.35;97210.25;30001;983;1880;-70
2022/11/03 01:44:30;;;;;;;;;;;;;;;7.25;87.49;97201.59;30001;983;1863;-69
2022/11/03 01:45:01;;;;;;;;;;;;;;;7.27;87.31;97204.84;30001;983;1872;-58
2022/11/03 01:45:32;;;;;;;;;;;;;;;7.29;86.97;97208.06;30001;982;1876;-71
2022/11/03 01:46:08;;;;;;;;;;;;;;;7.31;87.04;97205.09;30001;982;1880;-68
2022/11/03 01:46:53;;;;;;;;;;;;;;;7.30;87.11;97207.00;30001;982;1876;-70
2022/11/03 01:47:30;;;;;;;;;;;;;;;7.27;nan;97210.25;30001;982;1881;-68
2022/11/03 01:48:04;;;;;;;;;;;;;;;7.24;87.30;97204.56;30001;983;1876;-72
2022/11/03 01:48:39;;;;;;;;;;;;;;;7.21;87.00;97200.50;30001;983;1880;-69
2022/11/03 01:49:13;;;;;;;;;;;;;;;7.18;87.36;97200.22;30001;983;1876;-68
2022/11/03 01:50:13;;;;;;;;;;;;;;;7.18;87.95;97205.59;30001;983;1867;-69
2022/11/03 01:50:46;;;;;;;;;;;;;;;7.17;87.60;97204.81;30001;983;1862;-57
2022/11/03 01:51:20;;;;;;;;;;;;;;;7.14;87.44;97202.63;30001;983;1880;-65
2022/11/03 01:51:54;;;;;;;;;;;;;;;7.16;87.51;97208.56;30001;983;1876;-69
2022/11/03 01:52:27;;;;;;;;;;;;;;;7.19;87.44;97204.53;30001;983;1880;-66
2022/11/03 01:52:58;;;;;;;;;;;;;;;7.19;87.44;97209.94;30001;982;1876;-67
2022/11/03 01:53:29;;;;;;;;;;;;;;;7.20;87.14;97198.88;30001;982;1880;-68
2022/11/03 01:54:02;;;;;;;;;;;;;;;7.17;87.00;97203.97;30001;982;1876;-68
2022/11/03 01:54:35;;;;;;;;;;;;;;;7.14;87.37;97199.94;30001;982;1881;-71
2022/11/03 01:55:08;;;;;;;;;;;;;;;7.11;86.96;97199.62;30001;982;1863;-68
2022/11/03 01:55:39;;;;;;;;;;;;;;;7.09;87.41;97197.19;30001;983;1871;-67
2022/11/03 01:56:12;;;;;;;;;;;;;;;7.09;87.76;97199.91;30001;983;1875;-70
2022/11/03 01:56:45;;;;;;;;;;;;;;;7.10;87.62;97201.53;30001;983;1880;-57
2022/11/03 01:57:22;;;;;;;;;;;;;;;7.11;87.69;97200.44;30001;983;1876;-71
2022/11/03 01:58:02;;;;;;;;;;;;;;;7.09;87.62;97194.50;30001;983;1880;-71
2022/11/03 01:58:36;;;;;;;;;;;;;;;7.06;87.80;97192.31;30001;983;1876;-72
2022/11/03 01:59:10;;;;;;;;;;;;;;;7.06;87.90;97197.72;30001;983;1880;-58
2022/11/03 01:59:42;;;;;;;;;;;;;;;7.04;88.30;97192.59;30001;983;1876;-69
2022/11/03 02:00:13;;;;;;;;;;;;;;;7.04;88.26;97189.06;30001;983;1867;-57
2022/11/03 02:00:46;;;;;;;;;;;;;;;7.07;88.48;97191.25;30001;982;1867;-58
2022/11/03 02:01:18;;;;;;;;;;;;;;;7.11;88.33;97195.06;30001;982;1881;-70
2022/11/03 02:01:49;;;;;;;;;;;;;;;7.16;87.87;97186.97;30001;982;1876;-68
2022/11/03 02:02:21;;;;;;;;;;;;;;;7.17;88.11;97188.59;30001;986;1881;-58
2022/11/03 02:02:53;;;;;;;;;;;;;;;7.17;88.22;97188.59;30001;982;1876;-58
2022/11/03 02:03:25;;;;;;;;;;;;;;;7.20;87.99;97188.09;30001;983;1880;-67
2022/11/03 02:04:06;;;;;;;;;;;;;;;7.20;88.10;97188.09;30001;983;1875;-67
2022/11/03 02:04:38;;;;;;;;;;;;;;;7.19;87.88;97186.47;30001;983;1880;-58
2022/11/03 02:05:10;;;;;;;;;;;;;;;7.19;88.38;97191.84;30001;983;1876;-65
2022/11/03 02:05:42;;;;;;;;;;;;;;;7.16;87.58;97183.47;30001;983;1867;-58
2022/11/03 02:06:14;;;;;;;;;;;;;;;7.17;88.36;97177.81;30001;983;1867;-69
2022/11/03 02:06:48;;;;;;;;;;;;;;;7.17;87.88;97183.22;30001;983;1880;-70
2022/11/03 02:07:41;;;;;;;;;;;;;;;7.16;88.01;97191.56;30001;983;1876;-58
2022/11/03 02:08:16;;;;;;;;;;;;;;;7.17;87.91;97187.78;30001;982;1876;-72
2022/11/03 02:08:50;;;;;;;;;;;;;;;7.16;88.08;97186.97;30001;982;1876;-68
2022/11/03 02:09:21;;;;;;;;;;;;;;;7.17;87.59;97185.91;30001;982;1880;-57
2022/11/03 02:09:55;;;;;;;;;;;;;;;7.18;87.98;97184.84;30001;982;1876;-72
2022/11/03 02:10:26;;;;;;;;;;;;;;;7.16;87.99;97184.28;30001;982;1881;-57
2022/11/03 02:10:57;;;;;;;;;;;;;;;7.14;88.03;97183.72;30001;983;1862;-67
2022/11/03 02:12:19;;;;;;;;;;;;;;;7.13;88.32;97182.09;30001;983;1790;-69
2022/11/03 02:12:51;;;;;;;;;;;;;;;7.16;88.14;97184.28;30001;983;1880;-57
2022/11/03 02:13:23;;;;;;;;;;;;;;;7.18;88.12;97179.44;30001;983;1773;-68
2022/11/03 02:13:54;;;;;;;;;;;;;;;7.20;87.65;97182.69;30001;983;1880;-68
2022/11/03 02:14:24;;;;;;;;;;;;;;;7.19;87.63;97181.06;30001;983;1876;-68
2022/11/03 02:14:59;;;;;;;;;;;;;;;7.19;87.61;97174.84;30001;983;1880;-66
2022/11/03 02:15:31;;;;;;;;;;;;;;;7.16;87.79;97173.50;30001;982;1876;-68
2022/11/03 02:16:02;;;;;;;;;;;;;;;7.15;87.73;97173.75;30001;982;1867;-69
2022/11/03 02:16:36;;;;;;;;;;;;;;;7.13;87.92;97173.19;30001;982;1868;-68
2022/11/03 02:17:11;;;;;;;;;;;;;;;7.13;88.37;97176.72;30001;982;1880;-69
2022/11/03 02:17:44;;;;;;;;;;;;;;;7.12;88.39;97171.56;30001;982;1876;-69
2022/11/03 02:18:17;;;;;;;;;;;;;;;7.13;88.09;97179.41;30001;983;1880;-68
2022/11/03 02:18:49;;;;;;;;;;;;;;;7.13;88.34;97176.72;30001;983;1876;-69
2022/11/03 02:19:46;;;;;;;;;;;;;;;7.13;87.87;97179.41;30001;983;1880;-72
2022/11/03 02:20:19;;;;;;;;;;;;;;;7.13;88.63;97176.72;30001;983;1871;-70
2022/11/03 02:20:56;;;;;;;;;;;;;;;7.14;88.15;97178.34;30001;983;1880;-67
2022/11/03 02:21:37;;;;;;;;;;;;;;;7.16;88.27;97176.19;30001;983;1863;-69
2022/11/03 02:22:28;;;;;;;;;;;;;;;7.17;87.95;97177.00;30001;983;1872;-68
2022/11/03 02:23:29;;;;;;;;;;;;;;;7.16;88.15;97181.59;30001;982;1876;-69
2022/11/03 02:24:19;;;;;;;;;;;;;;;7.17;88.14;97177.00;30001;982;1876;-67
2022/11/03 02:25:09;;;;;;;;;;;;;;;7.17;88.37;97171.59;30001;982;1872;-71
2022/11/03 02:25:45;;;;;;;;;;;;;;;7.16;88.18;97170.78;30001;986;1880;-67
2022/11/03 02:26:15;;;;;;;;;;;;;;;7.15;88.34;97179.97;30001;983;1876;-70
2022/11/03 02:26:51;;;;;;;;;;;;;;;7.17;88.07;97172.41;30001;983;1867;-70
2022/11/03 02:27:22;;;;;;;;;;;;;;;7.17;88.15;97166.22;30001;983;1867;-68
2022/11/03 02:27:53;;;;;;;;;;;;;;;7.16;88.25;97173.50;30001;983;1880;-69
2022/11/03 02:28:26;;;;;;;;;;;;;;;7.16;88.48;97168.09;30001;983;1780;-67
2022/11/03 02:28:57;;;;;;;;;;;;;;;7.16;88.29;97169.97;30001;983;1880;-69
2022/11/03 02:29:28;;;;;;;;;;;;;;;7.17;88.47;97166.22;30001;983;1876;-68
2022/11/03 02:30:00;;;;;;;;;;;;;;;7.14;88.09;97162.16;30001;982;1880;-69
2022/11/03 02:30:36;;;;;;;;;;;;;;;7.14;88.59;97162.16;30001;982;1876;-68
2022/11/03 02:31:10;;;;;;;;;;;;;;;7.13;88.41;97167.81;30001;982;1880;-57
2022/11/03 02:31:46;;;;;;;;;;;;;;;7.13;88.71;97165.09;30001;982;1876;-69
2022/11/03 02:32:25;;;;;;;;;;;;;;;7.11;88.28;97165.37;30001;984;1867;-67
2022/11/03 02:33:01;;;;;;;;;;;;;;;7.11;88.84;97161.84;30001;982;1854;-71
2022/11/03 02:33:41;;;;;;;;;;;;;;;7.11;88.98;97164.56;30001;983;1880;-70
2022/11/03 02:34:15;;;;;;;;;;;;;;;7.11;89.29;97167.25;30001;983;1876;-72
2022/11/03 02:35:00;;;;;;;;;;;;;;;7.11;89.12;97161.84;30001;983;1879;-56
2022/11/03 02:35:37;;;;;;;;;;;;;;;7.14;89.48;97166.72;30001;983;1876;-69
2022/11/03 02:36:14;;;;;;;;;;;;;;;7.15;89.18;97162.97;30001;983;1867;-70
2022/11/03 02:36:49;;;;;;;;;;;;;;;7.16;89.08;97160.00;30001;983;1867;-66
2022/11/03 02:37:22;;;;;;;;;;;;;;;7.20;88.94;97160.28;30001;982;1880;-66
2022/11/03 02:37:55;;;;;;;;;;;;;;;7.20;89.04;97157.59;30001;982;1876;-67
2022/11/03 02:38:27;;;;;;;;;;;;;;;7.21;88.76;97156.50;30001;982;1881;-67
2022/11/03 02:39:08;;;;;;;;;;;;;;;7.22;88.98;97150.84;30001;982;1876;-69
2022/11/03 02:39:47;;;;;;;;;;;;;;;7.22;88.92;97150.03;30001;982;1867;-68
2022/11/03 02:40:25;;;;;;;;;;;;;;;7.21;88.93;97157.31;30001;982;1868;-67
2022/11/03 02:41:00;;;;;;;;;;;;;;;7.20;89.09;97153.00;30001;983;1880;-68
2022/11/03 02:41:33;;;;;;;;;;;;;;;7.22;88.68;97150.03;30001;983;1876;-56
2022/11/03 02:42:04;;;;;;;;;;;;;;;7.24;88.82;97151.41;30001;983;1880;-69
2022/11/03 02:42:36;;;;;;;;;;;;;;;7.25;88.49;97147.62;30001;983;1780;-69
2022/11/03 02:43:09;;;;;;;;;;;;;;;7.27;88.48;97145.47;30001;983;1867;-67
2022/11/03 02:43:40;;;;;;;;;;;;;;;7.29;87.88;97150.56;30001;983;1867;-65
2022/11/03 02:44:15;;;;;;;;;;;;;;;7.34;88.12;97146.00;30001;983;1880;-57
2022/11/03 02:44:47;;;;;;;;;;;;;;;7.37;87.42;97150.87;30001;983;1876;-69
2022/11/03 02:45:20;;;;;;;;;;;;;;;7.36;87.58;97146.56;30001;982;1880;-68
2022/11/03 02:45:51;;;;;;;;;;;;;;;7.37;87.20;97145.47;30001;982;1876;-69
2022/11/03 02:46:24;;;;;;;;;;;;;;;7.39;87.54;97143.31;30001;987;1871;-66
2022/11/03 02:46:58;;;;;;;;;;;;;;;7.41;87.34;97143.06;30001;982;1868;-68
2022/11/03 02:47:29;;;;;;;;;;;;;;;7.39;87.00;97143.31;30001;982;1867;-65
2022/11/03 02:48:02;;;;;;;;;;;;;;;7.38;87.07;97140.88;30001;982;1881;-69
2022/11/03 02:48:33;;;;;;;;;;;;;;;7.36;86.94;97149.25;30001;983;1875;-71
2022/11/03 02:49:04;;;;;;;;;;;;;;;7.33;87.05;97144.38;30001;983;1880;-68
2022/11/03 02:49:39;;;;;;;;;;;;;;;7.32;87.29;97139.25;30001;972;1896;-68
2022/11/03 02:50:10;;;;;;;;;;;;;;;7.31;87.66;97145.72;30001;983;1867;-56
2022/11/03 02:50:41;;;;;;;;;;;;;;;7.30;87.57;97141.41;30001;983;1867;-68
2022/11/03 02:51:12;;;;;;;;;;;;;;;7.29;87.99;97146.00;30001;983;1880;-56
2022/11/03 02:51:47;;;;;;;;;;;;;;;7.29;87.79;97132.50;30001;983;1863;-67
2022/11/03 02:52:55;;;;;;;;;;;;;;;7.28;87.49;97141.66;30001;983;1872;-69
2022/11/03 02:53:28;;;;;;;;;;;;;;;7.27;87.52;97140.06;30001;982;1872;-67
2022/11/03 02:54:24;;;;;;;;;;;;;;;7.30;87.83;97126.03;30001;982;1880;-68
2022/11/03 02:54:56;;;;;;;;;;;;;;;7.36;87.26;97129.53;30001;983;1871;-70
2022/11/03 02:55:49;;;;;;;;;;;;;;;7.38;87.67;97132.78;30001;983;1880;-68
2022/11/03 02:56:23;;;;;;;;;;;;;;;7.38;87.21;97125.50;30001;983;1858;-68
2022/11/03 02:57:17;;;;;;;;;;;;;;;7.37;87.02;97126.59;30001;983;1871;-69
2022/11/03 02:58:07;;;;;;;;;;;;;;;7.37;87.27;97128.47;30001;983;1871;-71
2022/11/03 02:58:43;;;;;;;;;;;;;;;7.33;87.34;97128.19;30001;983;1876;-69
2022/11/03 02:59:17;;;;;;;;;;;;;;;7.34;87.55;97124.41;30001;983;1876;-71
2022/11/03 03:00:01;;;;;;;;;;;;;;;7.33;87.32;97121.97;30001;983;1880;-70
2022/11/03 03:00:35;;;;;;;;;;;;;;;7.32;87.57;97126.56;30001;982;1876;-69
2022/11/03 03:01:13;;;;;;;;;;;;;;;7.30;87.29;97112.53;30001;982;1867;-68
2022/11/03 03:01:52;;;;;;;;;;;;;;;7.27;87.45;97121.19;30001;982;1868;-56
2022/11/03 03:02:25;;;;;;;;;;;;;;;7.23;87.87;97114.69;30001;982;1881;-70
2022/11/03 03:03:03;;;;;;;;;;;;;;;7.21;87.91;97121.44;30001;983;1875;-70
2022/11/03 03:03:37;;;;;;;;;;;;;;;7.18;87.69;97114.66;30001;983;1880;-67
2022/11/03 03:04:08;;;;;;;;;;;;;;;7.19;87.84;97108.19;30001;983;1876;-69
2022/11/03 03:04:44;;;;;;;;;;;;;;;7.19;88.23;97113.59;30001;983;1867;-57
2022/11/03 03:05:16;;;;;;;;;;;;;;;7.20;88.14;97111.72;30001;983;1867;-68
2022/11/03 03:05:52;;;;;;;;;;;;;;;7.21;88.12;97113.34;30001;983;1880;-68
2022/11/03 03:06:27;;;;;;;;;;;;;;;7.22;87.97;97109.56;30001;983;1876;-68
2022/11/03 03:07:01;;;;;;;;;;;;;;;7.20;87.90;97099.03;30001;983;1880;-68
2022/11/03 03:07:35;;;;;;;;;;;;;;;7.21;88.19;97103.34;30001;982;1876;-56
2022/11/03 03:08:09;;;;;;;;;;;;;;;7.22;88.06;97094.16;30001;982;1880;-68
2022/11/03 03:08:43;;;;;;;;;;;;;;;7.23;87.98;97101.19;30001;982;1876;-68
2022/11/03 03:09:23;;;;;;;;;;;;;;;7.23;87.93;97098.50;30001;982;1880;-66